sensor_id;sensor_type;location;lat;lon;timestamp;temperature;humidity
69944;DHT22;57257;48.408;-4.498;2023-03-07T00:02:24;9.96;64.70
69944;DHT22;57257;48.408;-4.498;2023-03-07T00:04:50;9.96;64.67
69944;DHT22;57257;48.408;-4.498;2023-03-07T00:07:15;9.98;64.69
69944;DHT22;57257;48.408;-4.498;2023-03-07T00:09:41;10.00;64.82
69944;DHT22;57257;48.408;-4.498;2023-03-07T00:12:07;10.00;65.11
69944;DHT22;57257;48.408;-4.498;2023-03-07T00:14:33;10.06;65.11
69944;DHT22;57257;48.408;-4.498;2023-03-07T00:16:58;10.06;65.08
69944;DHT22;57257;48.408;-4.498;2023-03-07T00:19:23;10.03;65.03
69944;DHT22;57257;48.408;-4.498;2023-03-07T00:21:49;10.06;65.14
69944;DHT22;57257;48.408;-4.498;2023-03-07T00:24:14;10.10;65.13
69944;DHT22;57257;48.408;-4.498;2023-03-07T00:26:40;10.13;65.07
69944;DHT22;57257;48.408;-4.498;2023-03-07T00:29:06;10.13;64.98
69944;DHT22;57257;48.408;-4.498;2023-03-07T00:31:32;10.12;64.91
69944;DHT22;57257;48.408;-4.498;2023-03-07T00:33:58;10.13;64.44
69944;DHT22;57257;48.408;-4.498;2023-03-07T00:36:24;10.13;64.43
69944;DHT22;57257;48.408;-4.498;2023-03-07T00:38:50;10.13;64.12
69944;DHT22;57257;48.408;-4.498;2023-03-07T00:41:21;10.10;63.53
69944;DHT22;57257;48.408;-4.498;2023-03-07T00:43:47;10.05;63.38
69944;DHT22;57257;48.408;-4.498;2023-03-07T00:46:14;10.05;63.35
69944;DHT22;57257;48.408;-4.498;2023-03-07T00:48:40;10.03;63.17
69944;DHT22;57257;48.408;-4.498;2023-03-07T00:51:07;10.02;62.95
69944;DHT22;57257;48.408;-4.498;2023-03-07T00:53:33;10.00;62.87
69944;DHT22;57257;48.408;-4.498;2023-03-07T00:56:14;9.98;62.54
69944;DHT22;57257;48.408;-4.498;2023-03-07T00:58:40;9.98;62.66
69944;DHT22;57257;48.408;-4.498;2023-03-07T01:01:06;9.92;62.86
69944;DHT22;57257;48.408;-4.498;2023-03-07T01:03:35;9.88;63.10
69944;DHT22;57257;48.408;-4.498;2023-03-07T01:06:06;9.85;63.35
69944;DHT22;57257;48.408;-4.498;2023-03-07T01:08:32;9.82;63.53
69944;DHT22;57257;48.408;-4.498;2023-03-07T01:10:59;9.78;63.70
69944;DHT22;57257;48.408;-4.498;2023-03-07T01:13:25;9.78;63.72
69944;DHT22;57257;48.408;-4.498;2023-03-07T01:15:50;9.76;63.73
69944;DHT22;57257;48.408;-4.498;2023-03-07T01:18:16;9.71;63.50
69944;DHT22;57257;48.408;-4.498;2023-03-07T01:20:41;9.68;63.30
69944;DHT22;57257;48.408;-4.498;2023-03-07T01:23:07;9.68;63.20
69944;DHT22;57257;48.408;-4.498;2023-03-07T01:25:37;9.65;63.14
69944;DHT22;57257;48.408;-4.498;2023-03-07T01:28:04;9.66;62.60
69944;DHT22;57257;48.408;-4.498;2023-03-07T01:30:29;9.63;62.22
69944;DHT22;57257;48.408;-4.498;2023-03-07T01:32:56;9.61;61.78
69944;DHT22;57257;48.408;-4.498;2023-03-07T01:35:22;9.66;61.90
69944;DHT22;57257;48.408;-4.498;2023-03-07T01:37:49;9.63;61.76
69944;DHT22;57257;48.408;-4.498;2023-03-07T01:40:14;9.63;61.64
69944;DHT22;57257;48.408;-4.498;2023-03-07T01:42:40;9.65;61.26
69944;DHT22;57257;48.408;-4.498;2023-03-07T01:47:33;9.66;61.51
69944;DHT22;57257;48.408;-4.498;2023-03-07T01:50:01;9.68;61.71
69944;DHT22;57257;48.408;-4.498;2023-03-07T01:52:54;9.71;61.50
69944;DHT22;57257;48.408;-4.498;2023-03-07T01:55:24;9.74;61.35
69944;DHT22;57257;48.408;-4.498;2023-03-07T01:57:51;9.75;61.41
69944;DHT22;57257;48.408;-4.498;2023-03-07T02:00:20;9.81;61.35
69944;DHT22;57257;48.408;-4.498;2023-03-07T02:03:11;9.88;61.19
69944;DHT22;57257;48.408;-4.498;2023-03-07T02:05:44;9.90;61.31
69944;DHT22;57257;48.408;-4.498;2023-03-07T02:08:13;9.92;61.29
69944;DHT22;57257;48.408;-4.498;2023-03-07T02:10:39;9.95;61.04
69944;DHT22;57257;48.408;-4.498;2023-03-07T02:13:05;9.99;61.07
69944;DHT22;57257;48.408;-4.498;2023-03-07T02:15:33;9.99;60.64
69944;DHT22;57257;48.408;-4.498;2023-03-07T02:17:59;9.99;60.87
69944;DHT22;57257;48.408;-4.498;2023-03-07T02:21:01;9.99;60.31
69944;DHT22;57257;48.408;-4.498;2023-03-07T02:23:49;10.00;60.45
69944;DHT22;57257;48.408;-4.498;2023-03-07T02:28:55;9.98;60.61
69944;DHT22;57257;48.408;-4.498;2023-03-07T02:31:21;9.99;60.29
69944;DHT22;57257;48.408;-4.498;2023-03-07T02:33:46;10.00;60.47
69944;DHT22;57257;48.408;-4.498;2023-03-07T02:36:18;10.02;60.58
69944;DHT22;57257;48.408;-4.498;2023-03-07T02:38:46;10.06;60.39
69944;DHT22;57257;48.408;-4.498;2023-03-07T02:41:14;10.10;60.38
69944;DHT22;57257;48.408;-4.498;2023-03-07T02:43:41;10.08;60.13
69944;DHT22;57257;48.408;-4.498;2023-03-07T02:46:07;10.05;60.24
69944;DHT22;57257;48.408;-4.498;2023-03-07T02:48:32;10.06;60.10
69944;DHT22;57257;48.408;-4.498;2023-03-07T02:50:57;10.05;59.47
69944;DHT22;57257;48.408;-4.498;2023-03-07T02:53:23;10.02;59.63
69944;DHT22;57257;48.408;-4.498;2023-03-07T02:55:49;9.99;59.89
69944;DHT22;57257;48.408;-4.498;2023-03-07T02:58:14;9.96;60.42
69944;DHT22;57257;48.408;-4.498;2023-03-07T03:00:39;10.02;60.53
69944;DHT22;57257;48.408;-4.498;2023-03-07T03:03:05;10.05;60.24
69944;DHT22;57257;48.408;-4.498;2023-03-07T03:05:30;10.05;60.29
69944;DHT22;57257;48.408;-4.498;2023-03-07T03:07:56;10.05;60.17
69944;DHT22;57257;48.408;-4.498;2023-03-07T03:10:21;10.05;60.22
69944;DHT22;57257;48.408;-4.498;2023-03-07T03:12:47;10.05;60.23
69944;DHT22;57257;48.408;-4.498;2023-03-07T03:15:12;10.05;60.00
69944;DHT22;57257;48.408;-4.498;2023-03-07T03:17:38;9.99;60.11
69944;DHT22;57257;48.408;-4.498;2023-03-07T03:20:04;9.95;60.38
69944;DHT22;57257;48.408;-4.498;2023-03-07T03:22:32;9.90;60.42
69944;DHT22;57257;48.408;-4.498;2023-03-07T03:24:57;9.90;60.53
69944;DHT22;57257;48.408;-4.498;2023-03-07T03:27:23;9.89;60.76
69944;DHT22;57257;48.408;-4.498;2023-03-07T03:29:48;9.90;60.58
69944;DHT22;57257;48.408;-4.498;2023-03-07T03:32:14;9.89;60.57
69944;DHT22;57257;48.408;-4.498;2023-03-07T03:34:39;9.88;60.62
69944;DHT22;57257;48.408;-4.498;2023-03-07T03:37:05;9.85;60.89
69944;DHT22;57257;48.408;-4.498;2023-03-07T03:39:32;9.85;60.99
69944;DHT22;57257;48.408;-4.498;2023-03-07T03:41:57;9.88;61.06
69944;DHT22;57257;48.408;-4.498;2023-03-07T03:44:22;9.92;61.12
69944;DHT22;57257;48.408;-4.498;2023-03-07T03:46:48;9.90;61.33
69944;DHT22;57257;48.408;-4.498;2023-03-07T03:49:13;9.92;61.37
69944;DHT22;57257;48.408;-4.498;2023-03-07T03:51:40;9.95;61.65
69944;DHT22;57257;48.408;-4.498;2023-03-07T03:54:06;9.98;61.59
69944;DHT22;57257;48.408;-4.498;2023-03-07T03:56:31;9.99;61.67
69944;DHT22;57257;48.408;-4.498;2023-03-07T03:58:57;10.00;61.63
69944;DHT22;57257;48.408;-4.498;2023-03-07T04:01:24;10.00;61.69
69944;DHT22;57257;48.408;-4.498;2023-03-07T04:03:51;10.00;61.75
69944;DHT22;57257;48.408;-4.498;2023-03-07T04:06:22;10.03;61.63
69944;DHT22;57257;48.408;-4.498;2023-03-07T04:08:49;10.05;61.40
69944;DHT22;57257;48.408;-4.498;2023-03-07T04:11:15;10.06;61.48
69944;DHT22;57257;48.408;-4.498;2023-03-07T04:13:41;10.05;61.19
69944;DHT22;57257;48.408;-4.498;2023-03-07T04:16:07;10.06;61.28
69944;DHT22;57257;48.408;-4.498;2023-03-07T04:18:33;10.05;61.10
69944;DHT22;57257;48.408;-4.498;2023-03-07T04:20:59;10.06;60.72
69944;DHT22;57257;48.408;-4.498;2023-03-07T04:23:25;10.08;60.51
69944;DHT22;57257;48.408;-4.498;2023-03-07T04:25:52;10.03;60.52
69944;DHT22;57257;48.408;-4.498;2023-03-07T04:28:23;10.02;60.65
69944;DHT22;57257;48.408;-4.498;2023-03-07T04:30:49;10.03;60.69
69944;DHT22;57257;48.408;-4.498;2023-03-07T04:33:16;10.10;60.37
69944;DHT22;57257;48.408;-4.498;2023-03-07T04:35:42;10.13;60.24
69944;DHT22;57257;48.408;-4.498;2023-03-07T04:38:07;10.08;60.26
69944;DHT22;57257;48.408;-4.498;2023-03-07T04:40:33;10.06;60.38
69944;DHT22;57257;48.408;-4.498;2023-03-07T04:42:59;10.10;60.76
69944;DHT22;57257;48.408;-4.498;2023-03-07T04:45:25;10.16;60.64
69944;DHT22;57257;48.408;-4.498;2023-03-07T04:47:50;10.17;60.71
69944;DHT22;57257;48.408;-4.498;2023-03-07T04:50:17;10.20;60.77
69944;DHT22;57257;48.408;-4.498;2023-03-07T04:52:42;10.21;60.73
69944;DHT22;57257;48.408;-4.498;2023-03-07T04:55:09;10.21;60.58
69944;DHT22;57257;48.408;-4.498;2023-03-07T04:57:34;10.19;60.70
69944;DHT22;57257;48.408;-4.498;2023-03-07T04:59:59;10.20;60.73
69944;DHT22;57257;48.408;-4.498;2023-03-07T05:02:25;10.23;60.49
69944;DHT22;57257;48.408;-4.498;2023-03-07T05:04:50;10.19;60.58
69944;DHT22;57257;48.408;-4.498;2023-03-07T05:07:16;10.21;60.64
69944;DHT22;57257;48.408;-4.498;2023-03-07T05:09:41;10.21;60.81
69944;DHT22;57257;48.408;-4.498;2023-03-07T05:12:07;10.23;60.82
69944;DHT22;57257;48.408;-4.498;2023-03-07T05:14:32;10.23;60.79
69944;DHT22;57257;48.408;-4.498;2023-03-07T05:16:58;10.24;60.82
69944;DHT22;57257;48.408;-4.498;2023-03-07T05:19:23;10.23;60.95
69944;DHT22;57257;48.408;-4.498;2023-03-07T05:21:49;10.21;61.05
69944;DHT22;57257;48.408;-4.498;2023-03-07T05:24:14;10.23;61.09
69944;DHT22;57257;48.408;-4.498;2023-03-07T05:26:40;10.24;61.11
69944;DHT22;57257;48.408;-4.498;2023-03-07T05:29:05;10.26;61.15
69944;DHT22;57257;48.408;-4.498;2023-03-07T05:31:31;10.24;61.17
69944;DHT22;57257;48.408;-4.498;2023-03-07T05:33:56;10.24;61.27
69944;DHT22;57257;48.408;-4.498;2023-03-07T05:36:22;10.26;61.27
69944;DHT22;57257;48.408;-4.498;2023-03-07T05:38:47;10.29;61.15
69944;DHT22;57257;48.408;-4.498;2023-03-07T05:41:13;10.26;61.23
69944;DHT22;57257;48.408;-4.498;2023-03-07T05:43:38;10.17;61.22
69944;DHT22;57257;48.408;-4.498;2023-03-07T05:46:04;10.16;61.80
69944;DHT22;57257;48.408;-4.498;2023-03-07T05:48:29;10.12;62.19
69944;DHT22;57257;48.408;-4.498;2023-03-07T05:50:58;10.05;63.42
69944;DHT22;57257;48.408;-4.498;2023-03-07T05:53:24;9.96;63.96
69944;DHT22;57257;48.408;-4.498;2023-03-07T05:55:49;9.95;64.33
69944;DHT22;57257;48.408;-4.498;2023-03-07T05:58:15;9.92;64.48
69944;DHT22;57257;48.408;-4.498;2023-03-07T06:00:40;9.90;64.51
69944;DHT22;57257;48.408;-4.498;2023-03-07T06:03:06;9.86;64.98
69944;DHT22;57257;48.408;-4.498;2023-03-07T06:05:31;9.88;64.83
69944;DHT22;57257;48.408;-4.498;2023-03-07T06:07:56;9.85;65.20
69944;DHT22;57257;48.408;-4.498;2023-03-07T06:10:22;9.81;65.39
69944;DHT22;57257;48.408;-4.498;2023-03-07T06:12:51;9.81;65.60
69944;DHT22;57257;48.408;-4.498;2023-03-07T06:15:18;9.79;65.60
69944;DHT22;57257;48.408;-4.498;2023-03-07T06:17:44;9.81;65.46
69944;DHT22;57257;48.408;-4.498;2023-03-07T06:20:10;9.75;65.88
69944;DHT22;57257;48.408;-4.498;2023-03-07T06:22:35;9.68;66.07
69944;DHT22;57257;48.408;-4.498;2023-03-07T06:25:06;9.63;66.33
69944;DHT22;57257;48.408;-4.498;2023-03-07T06:27:33;9.63;66.41
69944;DHT22;57257;48.408;-4.498;2023-03-07T06:29:59;9.71;66.41
69944;DHT22;57257;48.408;-4.498;2023-03-07T06:32:24;9.69;66.66
69944;DHT22;57257;48.408;-4.498;2023-03-07T06:34:50;9.63;66.88
69944;DHT22;57257;48.408;-4.498;2023-03-07T06:37:15;9.63;66.78
69944;DHT22;57257;48.408;-4.498;2023-03-07T06:39:41;9.59;67.07
69944;DHT22;57257;48.408;-4.498;2023-03-07T06:42:07;9.61;67.12
69944;DHT22;57257;48.408;-4.498;2023-03-07T06:44:32;9.62;67.35
69944;DHT22;57257;48.408;-4.498;2023-03-07T06:46:57;9.62;67.40
69944;DHT22;57257;48.408;-4.498;2023-03-07T06:49:23;9.65;67.45
69944;DHT22;57257;48.408;-4.498;2023-03-07T06:51:48;9.72;67.27
69944;DHT22;57257;48.408;-4.498;2023-03-07T06:54:14;9.69;67.50
69944;DHT22;57257;48.408;-4.498;2023-03-07T06:56:39;9.74;67.66
69944;DHT22;57257;48.408;-4.498;2023-03-07T06:59:05;9.78;67.43
69944;DHT22;57257;48.408;-4.498;2023-03-07T07:01:30;9.78;67.73
69944;DHT22;57257;48.408;-4.498;2023-03-07T07:03:56;9.82;67.45
69944;DHT22;57257;48.408;-4.498;2023-03-07T07:06:22;9.82;67.48
69944;DHT22;57257;48.408;-4.498;2023-03-07T07:08:47;9.78;67.55
69944;DHT22;57257;48.408;-4.498;2023-03-07T07:11:12;9.71;67.74
69944;DHT22;57257;48.408;-4.498;2023-03-07T07:13:38;9.68;67.82
69944;DHT22;57257;48.408;-4.498;2023-03-07T07:16:05;9.66;67.86
69944;DHT22;57257;48.408;-4.498;2023-03-07T07:18:31;9.62;68.07
69944;DHT22;57257;48.408;-4.498;2023-03-07T07:20:56;9.61;68.24
69944;DHT22;57257;48.408;-4.498;2023-03-07T07:23:21;9.58;68.26
69944;DHT22;57257;48.408;-4.498;2023-03-07T07:25:47;9.55;68.42
69944;DHT22;57257;48.408;-4.498;2023-03-07T07:28:12;9.52;68.64
69944;DHT22;57257;48.408;-4.498;2023-03-07T07:30:38;9.48;68.66
69944;DHT22;57257;48.408;-4.498;2023-03-07T07:33:03;9.48;68.71
69944;DHT22;57257;48.408;-4.498;2023-03-07T07:35:28;9.55;68.96
69944;DHT22;57257;48.408;-4.498;2023-03-07T07:37:54;9.62;68.85
69944;DHT22;57257;48.408;-4.498;2023-03-07T07:40:19;9.65;68.57
69944;DHT22;57257;48.408;-4.498;2023-03-07T07:42:51;9.72;68.76
69944;DHT22;57257;48.408;-4.498;2023-03-07T07:45:20;9.78;68.87
69944;DHT22;57257;48.408;-4.498;2023-03-07T07:47:47;9.85;68.53
69944;DHT22;57257;48.408;-4.498;2023-03-07T07:50:15;9.85;68.57
69944;DHT22;57257;48.408;-4.498;2023-03-07T07:52:40;9.88;68.48
69944;DHT22;57257;48.408;-4.498;2023-03-07T07:55:06;9.93;68.57
69944;DHT22;57257;48.408;-4.498;2023-03-07T07:57:31;9.93;68.51
69944;DHT22;57257;48.408;-4.498;2023-03-07T07:59:57;9.92;68.40
69944;DHT22;57257;48.408;-4.498;2023-03-07T08:02:22;9.92;68.32
69944;DHT22;57257;48.408;-4.498;2023-03-07T08:04:48;9.89;68.36
69944;DHT22;57257;48.408;-4.498;2023-03-07T08:07:14;9.88;68.43
69944;DHT22;57257;48.408;-4.498;2023-03-07T08:09:40;9.89;68.51
69944;DHT22;57257;48.408;-4.498;2023-03-07T08:12:07;9.89;68.33
69944;DHT22;57257;48.408;-4.498;2023-03-07T08:14:33;9.90;68.38
69944;DHT22;57257;48.408;-4.498;2023-03-07T08:16:58;9.88;68.75
69944;DHT22;57257;48.408;-4.498;2023-03-07T08:19:24;9.89;68.81
69944;DHT22;57257;48.408;-4.498;2023-03-07T08:21:49;9.92;68.78
69944;DHT22;57257;48.408;-4.498;2023-03-07T08:24:15;10.02;68.94
69944;DHT22;57257;48.408;-4.498;2023-03-07T08:26:40;10.08;68.91
69944;DHT22;57257;48.408;-4.498;2023-03-07T08:29:06;10.16;68.77
69944;DHT22;57257;48.408;-4.498;2023-03-07T08:31:31;10.24;68.69
69944;DHT22;57257;48.408;-4.498;2023-03-07T08:33:56;10.33;68.48
69944;DHT22;57257;48.408;-4.498;2023-03-07T08:36:22;10.39;68.45
69944;DHT22;57257;48.408;-4.498;2023-03-07T08:38:49;10.37;68.42
69944;DHT22;57257;48.408;-4.498;2023-03-07T08:41:18;10.40;68.31
69944;DHT22;57257;48.408;-4.498;2023-03-07T08:43:44;10.43;68.29
69944;DHT22;57257;48.408;-4.498;2023-03-07T08:46:09;10.37;68.13
69944;DHT22;57257;48.408;-4.498;2023-03-07T08:48:35;10.39;67.96
69944;DHT22;57257;48.408;-4.498;2023-03-07T08:51:05;10.32;68.15
69944;DHT22;57257;48.408;-4.498;2023-03-07T08:53:31;10.24;68.35
69944;DHT22;57257;48.408;-4.498;2023-03-07T08:55:56;10.28;68.66
69944;DHT22;57257;48.408;-4.498;2023-03-07T08:58:22;10.37;68.75
69944;DHT22;57257;48.408;-4.498;2023-03-07T09:00:47;10.44;68.81
69944;DHT22;57257;48.408;-4.498;2023-03-07T09:03:12;10.53;68.74
69944;DHT22;57257;48.408;-4.498;2023-03-07T09:05:38;10.57;68.20
69944;DHT22;57257;48.408;-4.498;2023-03-07T09:08:05;10.54;68.35
69944;DHT22;57257;48.408;-4.498;2023-03-07T09:10:31;10.56;68.33
69944;DHT22;57257;48.408;-4.498;2023-03-07T09:12:56;10.56;68.39
69944;DHT22;57257;48.408;-4.498;2023-03-07T09:15:22;10.63;68.40
69944;DHT22;57257;48.408;-4.498;2023-03-07T09:17:48;10.70;68.42
69944;DHT22;57257;48.408;-4.498;2023-03-07T09:20:13;10.73;68.18
69944;DHT22;57257;48.408;-4.498;2023-03-07T09:22:42;10.74;67.99
69944;DHT22;57257;48.408;-4.498;2023-03-07T09:25:08;10.75;67.83
69944;DHT22;57257;48.408;-4.498;2023-03-07T09:27:34;10.68;68.10
69944;DHT22;57257;48.408;-4.498;2023-03-07T09:29:59;10.61;68.13
69944;DHT22;57257;48.408;-4.498;2023-03-07T09:32:25;10.47;68.72
69944;DHT22;57257;48.408;-4.498;2023-03-07T09:34:53;10.44;68.91
69944;DHT22;57257;48.408;-4.498;2023-03-07T09:37:19;10.46;68.91
69944;DHT22;57257;48.408;-4.498;2023-03-07T09:39:44;10.41;68.97
69944;DHT22;57257;48.408;-4.498;2023-03-07T09:50:20;10.39;69.27
69944;DHT22;57257;48.408;-4.498;2023-03-07T09:52:52;10.40;69.31
69944;DHT22;57257;48.408;-4.498;2023-03-07T09:55:22;10.46;69.32
69944;DHT22;57257;48.408;-4.498;2023-03-07T09:57:54;10.56;69.29
69944;DHT22;57257;48.408;-4.498;2023-03-07T10:00:28;10.60;69.08
69944;DHT22;57257;48.408;-4.498;2023-03-07T10:05:44;10.44;69.23
69944;DHT22;57257;48.408;-4.498;2023-03-07T10:08:18;10.39;69.32
69944;DHT22;57257;48.408;-4.498;2023-03-07T10:10:55;10.34;69.40
69944;DHT22;57257;48.408;-4.498;2023-03-07T10:18:58;10.16;70.39
69944;DHT22;57257;48.408;-4.498;2023-03-07T10:26:58;10.39;70.35
69944;DHT22;57257;48.408;-4.498;2023-03-07T10:29:33;10.49;70.34
69944;DHT22;57257;48.408;-4.498;2023-03-07T10:32:18;10.56;70.46
69944;DHT22;57257;48.408;-4.498;2023-03-07T10:34:44;10.50;70.37
69944;DHT22;57257;48.408;-4.498;2023-03-07T10:37:19;10.51;70.40
69944;DHT22;57257;48.408;-4.498;2023-03-07T10:39:52;10.51;70.57
69944;DHT22;57257;48.408;-4.498;2023-03-07T10:42:20;10.46;70.57
69944;DHT22;57257;48.408;-4.498;2023-03-07T10:44:46;10.51;70.69
69944;DHT22;57257;48.408;-4.498;2023-03-07T10:47:19;10.54;70.76
69944;DHT22;57257;48.408;-4.498;2023-03-07T10:49:46;10.54;70.90
69944;DHT22;57257;48.408;-4.498;2023-03-07T10:54:52;10.59;70.91
69944;DHT22;57257;48.408;-4.498;2023-03-07T10:57:25;10.60;70.93
69944;DHT22;57257;48.408;-4.498;2023-03-07T10:59:51;10.60;70.89
69944;DHT22;57257;48.408;-4.498;2023-03-07T11:02:35;10.53;70.87
69944;DHT22;57257;48.408;-4.498;2023-03-07T11:05:03;10.50;70.81
69944;DHT22;57257;48.408;-4.498;2023-03-07T11:07:42;10.51;71.10
69944;DHT22;57257;48.408;-4.498;2023-03-07T11:10:34;10.53;70.94
69944;DHT22;57257;48.408;-4.498;2023-03-07T11:13:27;10.47;70.96
69944;DHT22;57257;48.408;-4.498;2023-03-07T11:16:28;10.41;71.17
69944;DHT22;57257;48.408;-4.498;2023-03-07T11:18:53;10.41;71.45
69944;DHT22;57257;48.408;-4.498;2023-03-07T11:24:04;10.40;71.63
69944;DHT22;57257;48.408;-4.498;2023-03-07T11:26:32;10.40;71.74
69944;DHT22;57257;48.408;-4.498;2023-03-07T11:29:13;10.43;71.64
69944;DHT22;57257;48.408;-4.498;2023-03-07T11:34:48;10.59;72.27
69944;DHT22;57257;48.408;-4.498;2023-03-07T11:37:30;10.64;71.83
69944;DHT22;57257;48.408;-4.498;2023-03-07T11:40:23;10.70;72.14
69944;DHT22;57257;48.408;-4.498;2023-03-07T11:43:05;10.73;72.26
69944;DHT22;57257;48.408;-4.498;2023-03-07T11:54:20;10.73;71.72
69944;DHT22;57257;48.408;-4.498;2023-03-07T11:56:52;10.68;71.80
69944;DHT22;57257;48.408;-4.498;2023-03-07T12:05:26;10.61;72.11
69944;DHT22;57257;48.408;-4.498;2023-03-07T12:08:27;10.60;72.24
69944;DHT22;57257;48.408;-4.498;2023-03-07T12:24:42;10.71;71.95
69944;DHT22;57257;48.408;-4.498;2023-03-07T12:27:28;10.63;72.10
69944;DHT22;57257;48.408;-4.498;2023-03-07T12:30:14;10.63;72.24
69944;DHT22;57257;48.408;-4.498;2023-03-07T12:32:40;10.64;72.60
69944;DHT22;57257;48.408;-4.498;2023-03-07T12:35:22;10.64;72.45
69944;DHT22;57257;48.408;-4.498;2023-03-07T12:37:51;10.68;72.67
69944;DHT22;57257;48.408;-4.498;2023-03-07T12:40:25;10.71;72.79
69944;DHT22;57257;48.408;-4.498;2023-03-07T12:46:00;10.78;72.75
69944;DHT22;57257;48.408;-4.498;2023-03-07T12:48:52;10.84;72.71
69944;DHT22;57257;48.408;-4.498;2023-03-07T12:51:36;10.83;72.86
69944;DHT22;57257;48.408;-4.498;2023-03-07T12:54:10;10.84;72.88
69944;DHT22;57257;48.408;-4.498;2023-03-07T12:59:10;10.80;72.84
69944;DHT22;57257;48.408;-4.498;2023-03-07T13:01:42;10.80;73.22
69944;DHT22;57257;48.408;-4.498;2023-03-07T13:06:52;10.87;73.69
69944;DHT22;57257;48.408;-4.498;2023-03-07T13:14:52;10.93;73.70
69944;DHT22;57257;48.408;-4.498;2023-03-07T13:41:08;10.98;74.62
69944;DHT22;57257;48.408;-4.498;2023-03-07T13:51:17;11.08;74.56
69944;DHT22;57257;48.408;-4.498;2023-03-07T13:53:58;11.16;74.33
69944;DHT22;57257;48.408;-4.498;2023-03-07T13:56:27;11.16;74.07
69944;DHT22;57257;48.408;-4.498;2023-03-07T14:07:21;11.12;74.75
69944;DHT22;57257;48.408;-4.498;2023-03-07T14:10:08;11.14;74.76
69944;DHT22;57257;48.408;-4.498;2023-03-07T14:13:11;11.19;74.71
69944;DHT22;57257;48.408;-4.498;2023-03-07T14:18:38;11.28;76.03
69944;DHT22;57257;48.408;-4.498;2023-03-07T14:26:45;11.34;77.07
69944;DHT22;57257;48.408;-4.498;2023-03-07T14:29:17;11.34;77.22
69944;DHT22;57257;48.408;-4.498;2023-03-07T14:31:45;11.38;77.15
69944;DHT22;57257;48.408;-4.498;2023-03-07T14:39:21;11.62;76.32
69944;DHT22;57257;48.408;-4.498;2023-03-07T14:52:24;12.23;73.52
69944;DHT22;57257;48.408;-4.498;2023-03-07T14:54:52;12.40;72.57
69944;DHT22;57257;48.408;-4.498;2023-03-07T14:57:45;12.41;71.11
69944;DHT22;57257;48.408;-4.498;2023-03-07T15:02:54;12.09;71.93
69944;DHT22;57257;48.408;-4.498;2023-03-07T15:08:35;11.93;72.62
69944;DHT22;57257;48.408;-4.498;2023-03-07T15:11:29;11.82;72.92
69944;DHT22;57257;48.408;-4.498;2023-03-07T15:14:06;11.76;73.51
69944;DHT22;57257;48.408;-4.498;2023-03-07T15:16:37;11.79;73.59
69944;DHT22;57257;48.408;-4.498;2023-03-07T15:19:14;11.75;73.83
69944;DHT22;57257;48.408;-4.498;2023-03-07T15:21:46;11.79;74.05
69944;DHT22;57257;48.408;-4.498;2023-03-07T15:24:20;11.80;74.04
69944;DHT22;57257;48.408;-4.498;2023-03-07T15:26:51;11.80;74.04
69944;DHT22;57257;48.408;-4.498;2023-03-07T15:29:21;11.80;74.36
69944;DHT22;57257;48.408;-4.498;2023-03-07T15:31:57;11.75;74.41
69944;DHT22;57257;48.408;-4.498;2023-03-07T15:36:49;11.87;74.71
69944;DHT22;57257;48.408;-4.498;2023-03-07T15:39:27;11.92;74.69
69944;DHT22;57257;48.408;-4.498;2023-03-07T15:42:05;11.97;74.32
69944;DHT22;57257;48.408;-4.498;2023-03-07T15:44:31;11.99;74.30
69944;DHT22;57257;48.408;-4.498;2023-03-07T15:47:02;11.96;74.14
69944;DHT22;57257;48.408;-4.498;2023-03-07T15:49:41;11.87;74.25
69944;DHT22;57257;48.408;-4.498;2023-03-07T15:52:19;11.89;74.41
69944;DHT22;57257;48.408;-4.498;2023-03-07T15:54:49;11.90;74.49
69944;DHT22;57257;48.408;-4.498;2023-03-07T15:57:25;11.92;74.59
69944;DHT22;57257;48.408;-4.498;2023-03-07T16:00:03;11.96;74.69
69944;DHT22;57257;48.408;-4.498;2023-03-07T16:05:00;12.14;74.54
69944;DHT22;57257;48.408;-4.498;2023-03-07T16:07:25;12.19;74.42
69944;DHT22;57257;48.408;-4.498;2023-03-07T16:09:51;12.17;74.31
69944;DHT22;57257;48.408;-4.498;2023-03-07T16:12:18;12.17;74.17
69944;DHT22;57257;48.408;-4.498;2023-03-07T16:14:47;12.13;74.26
69944;DHT22;57257;48.408;-4.498;2023-03-07T16:17:20;12.17;74.26
69944;DHT22;57257;48.408;-4.498;2023-03-07T16:19:47;12.22;74.33
69944;DHT22;57257;48.408;-4.498;2023-03-07T16:22:17;12.29;74.47
69944;DHT22;57257;48.408;-4.498;2023-03-07T16:24:43;12.36;74.37
69944;DHT22;57257;48.408;-4.498;2023-03-07T16:27:20;12.43;74.29
69944;DHT22;57257;48.408;-4.498;2023-03-07T16:29:46;12.47;74.20
69944;DHT22;57257;48.408;-4.498;2023-03-07T16:32:15;12.54;74.05
69944;DHT22;57257;48.408;-4.498;2023-03-07T16:34:41;12.48;74.24
69944;DHT22;57257;48.408;-4.498;2023-03-07T16:37:07;12.51;74.23
69944;DHT22;57257;48.408;-4.498;2023-03-07T16:39:33;12.51;74.53
69944;DHT22;57257;48.408;-4.498;2023-03-07T16:41:58;12.55;74.57
69944;DHT22;57257;48.408;-4.498;2023-03-07T16:44:24;12.57;74.30
69944;DHT22;57257;48.408;-4.498;2023-03-07T16:47:14;12.57;74.32
69944;DHT22;57257;48.408;-4.498;2023-03-07T16:49:39;12.54;74.23
69944;DHT22;57257;48.408;-4.498;2023-03-07T16:52:05;12.54;74.15
69944;DHT22;57257;48.408;-4.498;2023-03-07T16:54:31;12.51;73.99
69944;DHT22;57257;48.408;-4.498;2023-03-07T16:56:56;12.53;74.12
69944;DHT22;57257;48.408;-4.498;2023-03-07T16:59:23;12.47;73.86
69944;DHT22;57257;48.408;-4.498;2023-03-07T17:01:52;12.47;74.08
69944;DHT22;57257;48.408;-4.498;2023-03-07T17:04:18;12.47;74.07
69944;DHT22;57257;48.408;-4.498;2023-03-07T17:06:44;12.45;73.89
69944;DHT22;57257;48.408;-4.498;2023-03-07T17:09:11;12.48;73.91
69944;DHT22;57257;48.408;-4.498;2023-03-07T17:11:38;12.53;73.99
69944;DHT22;57257;48.408;-4.498;2023-03-07T17:14:07;12.50;73.93
69944;DHT22;57257;48.408;-4.498;2023-03-07T17:16:39;12.51;73.84
69944;DHT22;57257;48.408;-4.498;2023-03-07T17:19:05;12.54;73.71
69944;DHT22;57257;48.408;-4.498;2023-03-07T17:21:32;12.54;73.65
69944;DHT22;57257;48.408;-4.498;2023-03-07T17:23:57;12.54;73.65
69944;DHT22;57257;48.408;-4.498;2023-03-07T17:26:33;12.55;73.70
69944;DHT22;57257;48.408;-4.498;2023-03-07T17:29:01;12.58;73.61
69944;DHT22;57257;48.408;-4.498;2023-03-07T17:31:27;12.61;73.68
69944;DHT22;57257;48.408;-4.498;2023-03-07T17:33:53;12.57;73.76
69944;DHT22;57257;48.408;-4.498;2023-03-07T17:36:18;12.57;73.60
69944;DHT22;57257;48.408;-4.498;2023-03-07T17:38:44;12.51;73.94
69944;DHT22;57257;48.408;-4.498;2023-03-07T17:41:09;12.44;74.38
69944;DHT22;57257;48.408;-4.498;2023-03-07T17:43:35;12.41;74.64
69944;DHT22;57257;48.408;-4.498;2023-03-07T17:46:00;12.37;75.24
69944;DHT22;57257;48.408;-4.498;2023-03-07T17:48:26;12.36;75.56
69944;DHT22;57257;48.408;-4.498;2023-03-07T17:50:51;12.30;75.95
69944;DHT22;57257;48.408;-4.498;2023-03-07T17:53:17;12.24;76.23
69944;DHT22;57257;48.408;-4.498;2023-03-07T17:55:42;12.22;76.55
69944;DHT22;57257;48.408;-4.498;2023-03-07T17:58:09;12.23;76.73
69944;DHT22;57257;48.408;-4.498;2023-03-07T18:00:36;12.19;77.00
69944;DHT22;57257;48.408;-4.498;2023-03-07T18:03:02;12.16;77.32